Terminal Aerodrome Forecast
Issued by NWS Sterling, VA

Home | Current Version | Previous Version | Text Only | Print | Product List | Glossary On
Versions: 1 2 3 4 5 6 7 8 9 10 11 12 13 14 15 16 17 18 19 20 21 22 23 24
000
FTUS41 KLWX 271730
TAFDCA
TAF
KDCA 271730Z 2718/2818 08006KT P6SM -SHRA BKN060
     FM272000 05005KT 4SM -SHRA OVC060
     FM280000 07005KT P6SM BKN045
     FM280900 03004KT P6SM BKN030
     FM281200 06004KT P6SM BKN015
     FM281700 12006KT P6SM BKN040=

USA.gov is the U.S. government's official web portal to all federal, state and local government web resources and services.